createdAt,value
2023-04-12T05:27:52.100Z,99356.56
2023-04-12T05:32:54.396Z,99345.94
2023-04-12T05:37:56.442Z,99319.91
2023-04-12T05:42:58.028Z,99308.22
2023-04-12T05:47:59.898Z,99303.00
2023-04-12T05:53:01.852Z,99296.66
2023-04-12T05:58:03.520Z,99288.63
2023-04-12T06:03:05.979Z,99280.94
2023-04-12T06:08:08.604Z,99274.66
2023-04-12T06:13:10.150Z,99271.91
2023-04-12T06:18:13.046Z,99258.47
2023-04-12T06:23:14.562Z,99254.56
2023-04-12T06:28:19.138Z,99241.13
2023-04-12T06:33:23.575Z,99226.06
2023-04-12T06:38:25.614Z,99206.13
2023-04-12T06:43:27.353Z,99193.19
2023-04-12T06:48:29.949Z,99183.97
2023-04-12T06:53:31.705Z,99176.44
2023-04-12T06:58:33.453Z,99169.94
2023-04-12T07:03:35.711Z,99165.03
2023-04-12T07:08:37.408Z,99154.38
2023-04-12T07:13:38.938Z,99151.91
2023-04-12T07:18:40.483Z,99130.16
2023-04-12T07:23:41.966Z,99120.22
2023-04-12T07:28:43.670Z,99104.38
2023-04-12T07:33:45.497Z,99089.09
2023-04-12T07:38:47.766Z,99064.19
2023-04-12T07:43:49.866Z,99064.47
2023-04-12T07:48:51.463Z,99056.75
2023-04-12T07:53:53.550Z,99065.16
2023-04-12T07:58:55.471Z,99086.34
2023-04-12T08:03:57.517Z,99077.31
2023-04-12T08:08:59.289Z,99081.50
2023-04-12T08:14:01.394Z,99059.22
2023-04-12T08:19:03.359Z,99045.50
2023-04-12T08:24:05.456Z,99035.88
2023-04-12T08:29:07.361Z,99029.56
2023-04-12T08:34:08.797Z,99035.03
2023-04-12T08:39:10.722Z,99027.75
2023-04-12T08:44:12.770Z,99038.97
2023-04-12T08:49:16.867Z,99032.75
2023-04-12T08:54:18.508Z,99030.84
2023-04-12T08:59:20.639Z,99038.69
2023-04-12T09:04:23.685Z,99052.13
2023-04-12T09:09:48.009Z,99051.88
2023-04-12T09:15:08.862Z,99026.22
2023-04-12T09:20:16.485Z,99028.75
2023-04-12T09:25:18.236Z,99022.44
2023-04-12T09:30:20.880Z,99006.84
2023-04-12T09:35:35.071Z,99006.34
2023-04-12T09:40:37.554Z,99014.97
2023-04-12T09:45:40.056Z,99005.22
2023-04-12T09:50:42.136Z,98997.50
2023-04-12T09:55:44.129Z,98992.31
2023-04-12T10:00:46.884Z,98991.19
2023-04-12T10:05:48.987Z,98975.75
2023-04-12T10:10:53.945Z,98970.53
2023-04-12T10:15:55.690Z,98963.66
2023-04-12T10:20:59.364Z,98957.09
2023-04-12T10:26:05.063Z,98953.41
2023-04-12T10:31:33.162Z,98957.00
2023-04-12T10:36:55.132Z,98938.31
2023-04-12T10:42:27.348Z,98927.88
2023-04-12T10:47:47.888Z,98924.44
2023-04-12T10:53:13.004Z,98917.75
2023-04-12T10:58:49.374Z,98911.59
2023-04-12T11:04:20.312Z,98908.16
2023-04-12T11:09:30.026Z,98903.00
2023-04-12T11:14:49.248Z,98887.38
2023-04-12T11:19:57.717Z,98890.19
2023-04-12T11:25:01.949Z,98875.47
2023-04-12T11:30:04.211Z,98872.69
2023-04-12T11:35:06.230Z,98868.38
2023-04-12T11:40:09.501Z,98847.94
2023-04-12T11:45:15.906Z,98845.88
2023-04-12T11:50:31.169Z,98835.84
2023-04-12T11:55:32.778Z,98822.50
2023-04-12T12:00:34.610Z,98831.38
2023-04-12T12:05:38.462Z,98824.53
2023-04-12T12:10:55.511Z,98823.09
2023-04-12T12:16:02.048Z,98822.75
2023-04-12T12:21:03.809Z,98808.25
2023-04-12T12:26:18.943Z,98807.44
2023-04-12T12:31:24.758Z,98810.09
2023-04-12T12:36:34.551Z,98806.00
2023-04-12T12:41:36.637Z,98787.59
2023-04-12T12:51:43.023Z,98824.47
2023-04-12T12:56:45.053Z,98801.91
2023-04-12T13:01:46.669Z,98795.94
2023-04-12T13:06:48.234Z,98787.06
2023-04-12T13:11:49.785Z,98783.47
2023-04-12T13:16:51.439Z,98763.81
2023-04-12T13:21:53.332Z,98759.50
2023-04-12T13:26:55.054Z,98759.78
2023-04-12T13:31:56.656Z,98724.25
2023-04-12T13:36:59.028Z,98735.69
2023-04-12T13:42:02.361Z,98743.47
2023-04-12T13:47:04.714Z,98729.88
2023-04-12T13:52:06.545Z,98738.19
2023-04-12T13:57:08.219Z,98740.28
2023-04-12T14:02:09.964Z,98740.84
2023-04-12T14:07:12.814Z,98764.97
2023-04-12T14:12:14.741Z,98765.59
2023-04-12T14:17:16.234Z,98798.72
2023-04-12T14:22:17.757Z,98833.56
2023-04-12T14:27:19.349Z,98895.72
2023-04-12T14:32:21.055Z,98917.41
2023-04-12T14:37:22.692Z,98936.41
2023-04-12T14:42:24.307Z,98957.19
2023-04-12T14:47:26.108Z,98965.03
2023-04-12T14:52:28.341Z,98964.13
2023-04-12T14:57:30.299Z,98970.31
2023-04-12T15:02:32.456Z,98955.38
2023-04-12T15:07:35.077Z,98987.25
2023-04-12T15:12:37.445Z,98985.41
2023-04-12T15:17:39.038Z,98976.84
2023-04-12T15:22:41.010Z,98974.16
2023-04-12T15:27:44.212Z,98967.03
2023-04-12T15:32:47.014Z,98965.06
2023-04-12T15:37:48.526Z,98961.16
2023-04-12T15:42:50.030Z,98958.13
2023-04-12T15:47:52.251Z,98942.53
2023-04-12T15:52:55.464Z,98958.84
2023-04-12T15:57:59.659Z,98953.22
2023-04-12T16:03:01.957Z,98950.53
2023-04-12T16:08:04.114Z,98940.41
2023-04-12T16:13:06.586Z,98944.78
2023-04-12T16:18:09.158Z,98948.59
2023-04-12T16:23:11.535Z,98936.44
2023-04-12T16:28:14.482Z,98950.09
2023-04-12T16:33:15.988Z,98935.47
2023-04-12T16:38:17.889Z,98928.63
2023-04-12T16:43:19.496Z,98923.34
2023-04-12T16:48:22.841Z,98912.38
2023-04-12T16:53:24.703Z,98924.00
2023-04-12T16:58:26.464Z,98915.28
2023-04-12T17:03:28.260Z,98936.84
2023-04-12T17:08:29.850Z,98952.84
2023-04-12T17:13:31.447Z,98953.72
2023-04-12T17:18:34.623Z,98965.69
2023-04-12T17:23:39.171Z,98966.34
2023-04-12T17:28:41.601Z,98962.53
2023-04-12T17:33:43.784Z,98936.47
2023-04-12T17:38:45.670Z,98921.06
2023-04-12T17:43:47.251Z,98926.25
2023-04-12T17:48:48.757Z,98938.09
2023-04-12T17:53:50.676Z,98934.22
2023-04-12T17:58:52.586Z,98928.63
2023-04-12T18:03:54.831Z,98928.69
2023-04-12T18:08:58.880Z,98930.66
2023-04-12T18:14:00.516Z,98938.78
2023-04-12T18:19:03.233Z,98948.44
2023-04-12T18:24:06.077Z,98970.13
2023-04-12T18:29:08.015Z,98982.97
2023-04-12T18:34:09.747Z,98988.44
2023-04-12T18:39:11.634Z,99005.63
2023-04-12T18:44:13.346Z,99007.00
2023-04-12T18:49:16.401Z,99006.25
2023-04-12T18:54:17.956Z,98999.59
2023-04-12T18:59:19.634Z,98994.75
2023-04-12T19:04:21.265Z,99014.41
2023-04-12T19:09:22.736Z,99034.13
2023-04-12T19:14:25.316Z,99052.06
2023-04-12T19:19:26.747Z,99062.25
2023-04-12T19:24:28.400Z,99078.88
2023-04-12T19:29:30.305Z,99123.47
2023-04-12T19:34:31.908Z,99153.56
2023-04-12T19:39:33.528Z,99191.66
2023-04-12T19:44:35.013Z,99167.50
2023-04-12T19:49:37.573Z,99154.25
2023-04-12T19:54:39.536Z,99157.38
2023-04-12T19:59:40.989Z,99158.88
2023-04-12T20:04:42.450Z,99171.34
2023-04-12T20:09:44.800Z,99177.13
2023-04-12T20:14:46.720Z,99180.13
2023-04-12T20:19:48.489Z,99187.81
2023-04-12T20:24:50.618Z,99207.53
2023-04-12T20:29:53.379Z,99201.47
2023-04-12T20:34:55.514Z,99199.63
2023-04-12T20:39:56.905Z,99221.81
2023-04-12T20:44:58.577Z,99224.44
2023-04-12T20:50:00.349Z,99227.03
2023-04-12T20:55:02.694Z,99232.28
2023-04-12T21:00:12.729Z,99242.53
2023-04-12T21:05:16.896Z,99235.09
2023-04-12T21:10:18.866Z,99230.97
2023-04-12T21:15:22.191Z,99232.63
2023-04-12T21:20:24.703Z,99238.06
2023-04-12T21:25:26.256Z,99259.69
2023-04-12T21:30:27.725Z,99266.84
2023-04-12T21:35:30.532Z,99277.06
2023-04-12T21:40:32.132Z,99296.16
2023-04-12T21:45:33.950Z,99313.19
2023-04-12T21:50:35.681Z,99311.59
2023-04-12T21:55:37.235Z,99314.28
2023-04-12T22:00:38.957Z,99304.84
2023-04-12T22:05:40.573Z,99309.88
2023-04-12T22:10:42.606Z,99309.31
2023-04-12T22:15:44.168Z,99318.78
2023-04-12T22:20:46.325Z,99306.97
2023-04-12T22:25:49.525Z,99307.28
2023-04-12T22:30:51.630Z,99310.22
2023-04-12T22:35:53.046Z,99309.66
2023-04-12T22:41:02.209Z,99293.59
2023-04-12T22:46:05.950Z,99292.97
2023-04-12T22:51:08.417Z,99293.97
2023-04-12T22:56:10.281Z,99290.69
2023-04-12T23:01:12.238Z,99288.66
2023-04-12T23:06:13.786Z,99291.56
2023-04-12T23:11:15.183Z,99294.22
2023-04-12T23:16:16.924Z,99304.00
2023-04-12T23:21:18.676Z,99296.81
2023-04-12T23:26:20.273Z,99308.19
2023-04-12T23:31:21.788Z,99309.25
2023-04-12T23:36:25.724Z,99313.38
2023-04-12T23:41:31.852Z,99314.13
2023-04-12T23:46:33.392Z,99320.09
2023-04-12T23:51:34.819Z,99298.50
2023-04-12T23:56:36.387Z,99299.78
